sensor_id;sensor_type;location;lat;lon;timestamp;P1;durP1;ratioP1;P2;durP2;ratioP2
42200;SDS011;27869;51.442;7.540;2022-07-06T00:02:25;7.22;;;1.50;;
42200;SDS011;27869;51.442;7.540;2022-07-06T00:04:52;6.28;;;1.30;;
42200;SDS011;27869;51.442;7.540;2022-07-06T00:07:19;8.75;;;1.75;;
42200;SDS011;27869;51.442;7.540;2022-07-06T00:09:47;6.13;;;1.38;;
42200;SDS011;27869;51.442;7.540;2022-07-06T00:12:14;5.85;;;1.27;;
42200;SDS011;27869;51.442;7.540;2022-07-06T00:14:43;8.43;;;1.52;;
42200;SDS011;27869;51.442;7.540;2022-07-06T00:17:10;5.95;;;1.35;;
42200;SDS011;27869;51.442;7.540;2022-07-06T00:19:37;5.25;;;1.27;;
42200;SDS011;27869;51.442;7.540;2022-07-06T00:22:04;7.28;;;1.40;;
42200;SDS011;27869;51.442;7.540;2022-07-06T00:24:31;4.35;;;1.15;;
42200;SDS011;27869;51.442;7.540;2022-07-06T00:26:58;7.20;;;1.25;;
42200;SDS011;27869;51.442;7.540;2022-07-06T00:29:25;8.90;;;1.52;;
42200;SDS011;27869;51.442;7.540;2022-07-06T00:31:57;8.68;;;1.33;;
42200;SDS011;27869;51.442;7.540;2022-07-06T00:34:24;6.10;;;1.42;;
42200;SDS011;27869;51.442;7.540;2022-07-06T00:36:51;4.10;;;1.30;;
42200;SDS011;27869;51.442;7.540;2022-07-06T00:39:18;8.27;;;1.63;;
42200;SDS011;27869;51.442;7.540;2022-07-06T00:41:47;9.07;;;1.65;;
42200;SDS011;27869;51.442;7.540;2022-07-06T00:44:14;7.18;;;1.70;;
42200;SDS011;27869;51.442;7.540;2022-07-06T00:46:41;8.13;;;1.60;;
42200;SDS011;27869;51.442;7.540;2022-07-06T00:49:09;7.82;;;1.75;;
42200;SDS011;27869;51.442;7.540;2022-07-06T00:51:56;8.68;;;1.52;;
42200;SDS011;27869;51.442;7.540;2022-07-06T00:54:24;7.50;;;1.55;;
42200;SDS011;27869;51.442;7.540;2022-07-06T00:56:52;9.30;;;1.63;;
42200;SDS011;27869;51.442;7.540;2022-07-06T00:59:19;7.50;;;1.80;;
42200;SDS011;27869;51.442;7.540;2022-07-06T01:01:46;8.07;;;1.75;;
42200;SDS011;27869;51.442;7.540;2022-07-06T01:04:15;9.32;;;1.83;;
42200;SDS011;27869;51.442;7.540;2022-07-06T01:06:42;7.60;;;1.63;;
42200;SDS011;27869;51.442;7.540;2022-07-06T01:09:11;4.90;;;1.60;;
42200;SDS011;27869;51.442;7.540;2022-07-06T01:11:38;6.53;;;1.60;;
42200;SDS011;27869;51.442;7.540;2022-07-06T01:14:05;9.98;;;1.70;;
42200;SDS011;27869;51.442;7.540;2022-07-06T01:16:34;10.05;;;1.60;;
42200;SDS011;27869;51.442;7.540;2022-07-06T01:19:01;6.65;;;1.80;;
42200;SDS011;27869;51.442;7.540;2022-07-06T01:21:29;9.15;;;1.77;;
42200;SDS011;27869;51.442;7.540;2022-07-06T01:23:56;8.80;;;1.92;;
42200;SDS011;27869;51.442;7.540;2022-07-06T01:26:23;10.25;;;1.52;;
42200;SDS011;27869;51.442;7.540;2022-07-06T01:28:50;8.88;;;1.48;;
42200;SDS011;27869;51.442;7.540;2022-07-06T01:31:18;8.32;;;1.77;;
42200;SDS011;27869;51.442;7.540;2022-07-06T01:33:46;7.20;;;1.60;;
42200;SDS011;27869;51.442;7.540;2022-07-06T01:36:15;8.05;;;1.70;;
42200;SDS011;27869;51.442;7.540;2022-07-06T01:38:45;8.23;;;1.40;;
42200;SDS011;27869;51.442;7.540;2022-07-06T01:41:12;6.35;;;1.50;;
42200;SDS011;27869;51.442;7.540;2022-07-06T01:43:39;9.48;;;1.55;;
42200;SDS011;27869;51.442;7.540;2022-07-06T01:46:06;9.18;;;1.70;;
42200;SDS011;27869;51.442;7.540;2022-07-06T01:48:34;10.57;;;1.60;;
42200;SDS011;27869;51.442;7.540;2022-07-06T01:51:01;5.72;;;1.35;;
42200;SDS011;27869;51.442;7.540;2022-07-06T01:53:28;7.25;;;1.73;;
42200;SDS011;27869;51.442;7.540;2022-07-06T01:55:56;9.50;;;2.08;;
42200;SDS011;27869;51.442;7.540;2022-07-06T01:58:24;11.07;;;1.80;;
42200;SDS011;27869;51.442;7.540;2022-07-06T02:00:51;10.32;;;1.73;;
42200;SDS011;27869;51.442;7.540;2022-07-06T02:03:18;8.90;;;2.00;;
42200;SDS011;27869;51.442;7.540;2022-07-06T02:05:45;8.07;;;1.83;;
42200;SDS011;27869;51.442;7.540;2022-07-06T02:08:12;9.50;;;1.73;;
42200;SDS011;27869;51.442;7.540;2022-07-06T02:10:38;8.27;;;1.60;;
42200;SDS011;27869;51.442;7.540;2022-07-06T02:13:07;9.60;;;1.90;;
42200;SDS011;27869;51.442;7.540;2022-07-06T02:15:35;7.20;;;1.73;;
42200;SDS011;27869;51.442;7.540;2022-07-06T02:18:02;7.65;;;1.70;;
42200;SDS011;27869;51.442;7.540;2022-07-06T02:20:28;6.32;;;1.48;;
42200;SDS011;27869;51.442;7.540;2022-07-06T02:22:55;7.13;;;1.80;;
42200;SDS011;27869;51.442;7.540;2022-07-06T02:25:22;8.93;;;1.95;;
42200;SDS011;27869;51.442;7.540;2022-07-06T02:27:49;7.47;;;1.52;;
42200;SDS011;27869;51.442;7.540;2022-07-06T02:30:18;7.68;;;1.73;;
42200;SDS011;27869;51.442;7.540;2022-07-06T02:32:45;9.43;;;1.80;;
42200;SDS011;27869;51.442;7.540;2022-07-06T02:35:12;7.32;;;1.65;;
42200;SDS011;27869;51.442;7.540;2022-07-06T02:37:39;8.18;;;1.70;;
42200;SDS011;27869;51.442;7.540;2022-07-06T02:40:06;7.22;;;1.52;;
42200;SDS011;27869;51.442;7.540;2022-07-06T02:42:34;8.70;;;1.80;;
42200;SDS011;27869;51.442;7.540;2022-07-06T02:45:02;6.55;;;1.40;;
42200;SDS011;27869;51.442;7.540;2022-07-06T02:47:30;7.88;;;1.77;;
42200;SDS011;27869;51.442;7.540;2022-07-06T02:49:58;9.20;;;1.52;;
42200;SDS011;27869;51.442;7.540;2022-07-06T02:52:25;5.80;;;1.42;;
42200;SDS011;27869;51.442;7.540;2022-07-06T02:54:52;8.32;;;1.83;;
42200;SDS011;27869;51.442;7.540;2022-07-06T02:57:19;9.90;;;2.00;;
42200;SDS011;27869;51.442;7.540;2022-07-06T02:59:46;9.05;;;1.50;;
42200;SDS011;27869;51.442;7.540;2022-07-06T03:02:14;8.10;;;1.73;;
42200;SDS011;27869;51.442;7.540;2022-07-06T03:04:43;8.30;;;1.38;;
42200;SDS011;27869;51.442;7.540;2022-07-06T03:07:10;7.00;;;1.70;;
42200;SDS011;27869;51.442;7.540;2022-07-06T03:09:37;3.50;;;1.20;;
42200;SDS011;27869;51.442;7.540;2022-07-06T03:12:04;8.10;;;1.80;;
42200;SDS011;27869;51.442;7.540;2022-07-06T03:14:31;6.55;;;1.33;;
42200;SDS011;27869;51.442;7.540;2022-07-06T03:16:58;6.53;;;1.50;;
42200;SDS011;27869;51.442;7.540;2022-07-06T03:19:25;6.15;;;1.23;;
42200;SDS011;27869;51.442;7.540;2022-07-06T03:21:56;4.90;;;1.48;;
42200;SDS011;27869;51.442;7.540;2022-07-06T03:24:25;7.47;;;1.40;;
42200;SDS011;27869;51.442;7.540;2022-07-06T03:26:52;7.97;;;1.55;;
42200;SDS011;27869;51.442;7.540;2022-07-06T03:29:19;5.13;;;1.27;;
42200;SDS011;27869;51.442;7.540;2022-07-06T03:31:46;5.22;;;1.50;;
42200;SDS011;27869;51.442;7.540;2022-07-06T03:34:13;7.13;;;1.45;;
42200;SDS011;27869;51.442;7.540;2022-07-06T03:36:40;7.55;;;1.63;;
42200;SDS011;27869;51.442;7.540;2022-07-06T03:39:09;8.35;;;1.75;;
42200;SDS011;27869;51.442;7.540;2022-07-06T03:41:36;5.40;;;1.50;;
42200;SDS011;27869;51.442;7.540;2022-07-06T03:44:04;9.38;;;1.70;;
42200;SDS011;27869;51.442;7.540;2022-07-06T03:46:30;7.05;;;1.50;;
42200;SDS011;27869;51.442;7.540;2022-07-06T03:48:57;6.90;;;1.42;;
42200;SDS011;27869;51.442;7.540;2022-07-06T03:51:24;5.95;;;1.50;;
42200;SDS011;27869;51.442;7.540;2022-07-06T03:53:51;5.65;;;1.65;;
42200;SDS011;27869;51.442;7.540;2022-07-06T03:56:20;5.30;;;1.70;;
42200;SDS011;27869;51.442;7.540;2022-07-06T03:58:58;7.47;;;1.70;;
42200;SDS011;27869;51.442;7.540;2022-07-06T04:01:26;7.85;;;1.73;;
42200;SDS011;27869;51.442;7.540;2022-07-06T04:03:53;7.63;;;1.63;;
42200;SDS011;27869;51.442;7.540;2022-07-06T04:06:21;9.88;;;1.75;;
42200;SDS011;27869;51.442;7.540;2022-07-06T04:08:48;6.07;;;1.52;;
42200;SDS011;27869;51.442;7.540;2022-07-06T04:11:15;7.82;;;1.70;;
42200;SDS011;27869;51.442;7.540;2022-07-06T04:13:43;8.23;;;1.70;;
42200;SDS011;27869;51.442;7.540;2022-07-06T04:16:10;7.00;;;1.60;;
42200;SDS011;27869;51.442;7.540;2022-07-06T04:18:37;6.18;;;1.70;;
42200;SDS011;27869;51.442;7.540;2022-07-06T04:21:04;8.70;;;1.83;;
42200;SDS011;27869;51.442;7.540;2022-07-06T04:23:31;9.63;;;1.90;;
42200;SDS011;27869;51.442;7.540;2022-07-06T04:25:58;9.40;;;2.00;;
42200;SDS011;27869;51.442;7.540;2022-07-06T04:28:25;7.07;;;1.73;;
42200;SDS011;27869;51.442;7.540;2022-07-06T04:30:54;8.73;;;1.80;;
42200;SDS011;27869;51.442;7.540;2022-07-06T04:33:21;6.75;;;1.50;;
42200;SDS011;27869;51.442;7.540;2022-07-06T04:35:48;8.70;;;1.83;;
42200;SDS011;27869;51.442;7.540;2022-07-06T04:38:15;9.10;;;1.63;;
42200;SDS011;27869;51.442;7.540;2022-07-06T04:40:42;8.18;;;1.95;;
42200;SDS011;27869;51.442;7.540;2022-07-06T04:43:11;9.88;;;1.92;;
42200;SDS011;27869;51.442;7.540;2022-07-06T04:45:38;8.27;;;1.80;;
42200;SDS011;27869;51.442;7.540;2022-07-06T04:48:06;11.75;;;1.90;;
42200;SDS011;27869;51.442;7.540;2022-07-06T04:50:34;13.63;;;2.10;;
42200;SDS011;27869;51.442;7.540;2022-07-06T04:53:01;7.70;;;1.52;;
42200;SDS011;27869;51.442;7.540;2022-07-06T04:55:28;8.88;;;1.75;;
42200;SDS011;27869;51.442;7.540;2022-07-06T04:57:55;6.25;;;1.73;;
42200;SDS011;27869;51.442;7.540;2022-07-06T05:00:22;8.35;;;1.98;;
42200;SDS011;27869;51.442;7.540;2022-07-06T05:02:50;10.88;;;1.65;;
42200;SDS011;27869;51.442;7.540;2022-07-06T05:05:18;9.25;;;1.83;;
42200;SDS011;27869;51.442;7.540;2022-07-06T05:07:45;9.63;;;1.67;;
42200;SDS011;27869;51.442;7.540;2022-07-06T05:10:12;11.63;;;2.00;;
42200;SDS011;27869;51.442;7.540;2022-07-06T05:12:39;9.48;;;2.10;;
42200;SDS011;27869;51.442;7.540;2022-07-06T05:15:07;10.18;;;2.03;;
42200;SDS011;27869;51.442;7.540;2022-07-06T05:17:35;11.05;;;2.13;;
42200;SDS011;27869;51.442;7.540;2022-07-06T05:20:02;13.48;;;1.77;;
42200;SDS011;27869;51.442;7.540;2022-07-06T05:22:31;12.90;;;1.90;;
42200;SDS011;27869;51.442;7.540;2022-07-06T05:24:58;11.00;;;2.00;;
42200;SDS011;27869;51.442;7.540;2022-07-06T05:27:25;9.00;;;1.73;;
42200;SDS011;27869;51.442;7.540;2022-07-06T05:29:52;8.73;;;1.65;;
42200;SDS011;27869;51.442;7.540;2022-07-06T05:32:19;8.50;;;2.00;;
42200;SDS011;27869;51.442;7.540;2022-07-06T05:34:46;8.25;;;2.08;;
42200;SDS011;27869;51.442;7.540;2022-07-06T05:37:13;10.55;;;2.22;;
42200;SDS011;27869;51.442;7.540;2022-07-06T05:39:41;10.07;;;2.20;;
42200;SDS011;27869;51.442;7.540;2022-07-06T05:42:10;11.27;;;2.60;;
42200;SDS011;27869;51.442;7.540;2022-07-06T05:44:37;8.60;;;1.95;;
42200;SDS011;27869;51.442;7.540;2022-07-06T05:47:04;9.70;;;2.30;;
42200;SDS011;27869;51.442;7.540;2022-07-06T05:49:49;10.85;;;2.10;;
42200;SDS011;27869;51.442;7.540;2022-07-06T05:52:38;10.15;;;1.95;;
42200;SDS011;27869;51.442;7.540;2022-07-06T05:55:07;9.77;;;1.85;;
42200;SDS011;27869;51.442;7.540;2022-07-06T05:57:35;10.15;;;2.28;;
42200;SDS011;27869;51.442;7.540;2022-07-06T06:00:02;9.32;;;2.08;;
42200;SDS011;27869;51.442;7.540;2022-07-06T06:02:36;11.60;;;2.17;;
42200;SDS011;27869;51.442;7.540;2022-07-06T06:05:04;7.97;;;1.60;;
42200;SDS011;27869;51.442;7.540;2022-07-06T06:07:32;12.15;;;2.17;;
42200;SDS011;27869;51.442;7.540;2022-07-06T06:10:01;10.43;;;1.90;;
42200;SDS011;27869;51.442;7.540;2022-07-06T06:12:30;10.15;;;2.00;;
42200;SDS011;27869;51.442;7.540;2022-07-06T06:14:57;8.65;;;2.00;;
42200;SDS011;27869;51.442;7.540;2022-07-06T06:17:24;8.77;;;2.00;;
42200;SDS011;27869;51.442;7.540;2022-07-06T06:19:51;11.27;;;1.95;;
42200;SDS011;27869;51.442;7.540;2022-07-06T06:22:18;9.43;;;2.05;;
42200;SDS011;27869;51.442;7.540;2022-07-06T06:24:45;12.50;;;2.13;;
42200;SDS011;27869;51.442;7.540;2022-07-06T06:27:12;10.90;;;2.00;;
42200;SDS011;27869;51.442;7.540;2022-07-06T06:29:40;11.60;;;2.03;;
42200;SDS011;27869;51.442;7.540;2022-07-06T06:32:09;8.93;;;1.80;;
42200;SDS011;27869;51.442;7.540;2022-07-06T06:34:36;10.27;;;1.83;;
42200;SDS011;27869;51.442;7.540;2022-07-06T06:37:03;14.27;;;1.95;;
42200;SDS011;27869;51.442;7.540;2022-07-06T06:39:30;10.77;;;1.90;;
42200;SDS011;27869;51.442;7.540;2022-07-06T06:41:57;8.02;;;1.70;;
42200;SDS011;27869;51.442;7.540;2022-07-06T06:44:24;5.80;;;1.50;;
42200;SDS011;27869;51.442;7.540;2022-07-06T06:46:53;8.90;;;1.73;;
42200;SDS011;27869;51.442;7.540;2022-07-06T06:49:20;6.75;;;1.40;;
42200;SDS011;27869;51.442;7.540;2022-07-06T06:51:47;10.02;;;1.80;;
42200;SDS011;27869;51.442;7.540;2022-07-06T06:54:14;6.57;;;1.30;;
42200;SDS011;27869;51.442;7.540;2022-07-06T06:56:41;9.00;;;1.33;;
42200;SDS011;27869;51.442;7.540;2022-07-06T06:59:08;7.93;;;1.52;;
42200;SDS011;27869;51.442;7.540;2022-07-06T07:01:35;9.50;;;1.92;;
42200;SDS011;27869;51.442;7.540;2022-07-06T07:04:03;9.68;;;1.25;;
42200;SDS011;27869;51.442;7.540;2022-07-06T07:06:31;8.52;;;1.27;;
42200;SDS011;27869;51.442;7.540;2022-07-06T07:08:58;4.30;;;1.27;;
42200;SDS011;27869;51.442;7.540;2022-07-06T07:11:25;7.85;;;1.13;;
42200;SDS011;27869;51.442;7.540;2022-07-06T07:13:52;10.50;;;1.40;;
42200;SDS011;27869;51.442;7.540;2022-07-06T07:16:19;8.70;;;1.40;;
42200;SDS011;27869;51.442;7.540;2022-07-06T07:18:46;8.82;;;1.33;;
42200;SDS011;27869;51.442;7.540;2022-07-06T07:21:14;5.28;;;0.93;;
42200;SDS011;27869;51.442;7.540;2022-07-06T07:23:41;7.10;;;1.23;;
42200;SDS011;27869;51.442;7.540;2022-07-06T07:26:08;7.82;;;1.40;;
42200;SDS011;27869;51.442;7.540;2022-07-06T07:28:35;7.40;;;1.10;;
42200;SDS011;27869;51.442;7.540;2022-07-06T07:31:03;8.60;;;1.17;;
42200;SDS011;27869;51.442;7.540;2022-07-06T07:33:30;11.45;;;1.20;;
42200;SDS011;27869;51.442;7.540;2022-07-06T07:35:57;6.75;;;1.30;;
42200;SDS011;27869;51.442;7.540;2022-07-06T07:38:26;8.90;;;1.33;;
42200;SDS011;27869;51.442;7.540;2022-07-06T07:40:53;7.75;;;1.30;;
42200;SDS011;27869;51.442;7.540;2022-07-06T07:43:20;10.85;;;1.30;;
42200;SDS011;27869;51.442;7.540;2022-07-06T07:45:48;11.23;;;1.40;;
42200;SDS011;27869;51.442;7.540;2022-07-06T07:48:15;9.18;;;1.33;;
42200;SDS011;27869;51.442;7.540;2022-07-06T07:50:42;10.25;;;1.30;;
42200;SDS011;27869;51.442;7.540;2022-07-06T07:53:09;7.70;;;1.23;;
42200;SDS011;27869;51.442;7.540;2022-07-06T07:55:38;12.00;;;1.70;;
42200;SDS011;27869;51.442;7.540;2022-07-06T07:58:05;11.25;;;1.50;;
42200;SDS011;27869;51.442;7.540;2022-07-06T08:00:32;9.45;;;1.20;;
42200;SDS011;27869;51.442;7.540;2022-07-06T08:02:59;7.47;;;1.10;;
42200;SDS011;27869;51.442;7.540;2022-07-06T08:05:26;7.07;;;1.08;;
42200;SDS011;27869;51.442;7.540;2022-07-06T08:07:53;9.18;;;1.02;;
42200;SDS011;27869;51.442;7.540;2022-07-06T08:10:20;6.70;;;0.95;;
42200;SDS011;27869;51.442;7.540;2022-07-06T08:12:49;3.45;;;0.60;;
42200;SDS011;27869;51.442;7.540;2022-07-06T08:15:16;9.95;;;1.20;;
42200;SDS011;27869;51.442;7.540;2022-07-06T08:17:43;6.43;;;0.80;;
42200;SDS011;27869;51.442;7.540;2022-07-06T08:20:10;4.88;;;1.00;;
42200;SDS011;27869;51.442;7.540;2022-07-06T08:22:38;7.32;;;1.13;;
42200;SDS011;27869;51.442;7.540;2022-07-06T08:25:05;7.32;;;0.90;;
42200;SDS011;27869;51.442;7.540;2022-07-06T08:27:33;7.80;;;1.20;;
42200;SDS011;27869;51.442;7.540;2022-07-06T08:30:02;4.90;;;0.98;;
42200;SDS011;27869;51.442;7.540;2022-07-06T08:32:29;5.22;;;0.95;;
42200;SDS011;27869;51.442;7.540;2022-07-06T08:34:56;8.15;;;1.00;;
42200;SDS011;27869;51.442;7.540;2022-07-06T08:37:23;6.75;;;1.20;;
42200;SDS011;27869;51.442;7.540;2022-07-06T08:39:50;6.47;;;0.88;;
42200;SDS011;27869;51.442;7.540;2022-07-06T08:42:17;7.57;;;1.00;;
42200;SDS011;27869;51.442;7.540;2022-07-06T08:44:45;4.68;;;0.90;;
42200;SDS011;27869;51.442;7.540;2022-07-06T08:47:14;10.18;;;1.30;;
42200;SDS011;27869;51.442;7.540;2022-07-06T08:49:42;6.38;;;0.90;;
42200;SDS011;27869;51.442;7.540;2022-07-06T08:52:09;11.13;;;1.40;;
42200;SDS011;27869;51.442;7.540;2022-07-06T08:54:37;4.72;;;1.05;;
42200;SDS011;27869;51.442;7.540;2022-07-06T08:57:05;7.50;;;1.02;;
42200;SDS011;27869;51.442;7.540;2022-07-06T08:59:32;7.85;;;1.27;;
42200;SDS011;27869;51.442;7.540;2022-07-06T09:01:59;5.63;;;1.08;;
42200;SDS011;27869;51.442;7.540;2022-07-06T09:04:28;9.30;;;1.17;;
42200;SDS011;27869;51.442;7.540;2022-07-06T09:06:57;7.00;;;1.33;;
42200;SDS011;27869;51.442;7.540;2022-07-06T09:09:24;4.93;;;1.08;;
42200;SDS011;27869;51.442;7.540;2022-07-06T09:11:52;7.05;;;1.05;;
42200;SDS011;27869;51.442;7.540;2022-07-06T09:14:19;10.43;;;1.52;;
42200;SDS011;27869;51.442;7.540;2022-07-06T09:16:46;7.10;;;1.20;;
42200;SDS011;27869;51.442;7.540;2022-07-06T09:19:17;8.18;;;1.10;;
42200;SDS011;27869;51.442;7.540;2022-07-06T09:21:46;7.13;;;1.10;;
42200;SDS011;27869;51.442;7.540;2022-07-06T09:24:14;7.68;;;1.00;;
42200;SDS011;27869;51.442;7.540;2022-07-06T09:26:41;4.68;;;1.10;;
42200;SDS011;27869;51.442;7.540;2022-07-06T09:29:08;8.50;;;1.08;;
42200;SDS011;27869;51.442;7.540;2022-07-06T09:31:36;6.13;;;1.50;;
42200;SDS011;27869;51.442;7.540;2022-07-06T09:34:04;8.30;;;1.08;;
42200;SDS011;27869;51.442;7.540;2022-07-06T09:36:42;11.05;;;1.00;;
42200;SDS011;27869;51.442;7.540;2022-07-06T09:39:20;7.32;;;1.20;;
42200;SDS011;27869;51.442;7.540;2022-07-06T09:41:49;5.45;;;0.93;;
42200;SDS011;27869;51.442;7.540;2022-07-06T09:44:18;5.80;;;0.98;;
42200;SDS011;27869;51.442;7.540;2022-07-06T09:46:47;9.35;;;1.30;;
42200;SDS011;27869;51.442;7.540;2022-07-06T09:49:16;6.97;;;1.10;;
42200;SDS011;27869;51.442;7.540;2022-07-06T09:51:44;8.15;;;0.90;;
42200;SDS011;27869;51.442;7.540;2022-07-06T09:54:11;7.28;;;0.95;;
42200;SDS011;27869;51.442;7.540;2022-07-06T09:56:41;6.38;;;0.98;;
42200;SDS011;27869;51.442;7.540;2022-07-06T09:59:09;4.10;;;1.20;;
42200;SDS011;27869;51.442;7.540;2022-07-06T10:01:36;5.60;;;0.93;;
42200;SDS011;27869;51.442;7.540;2022-07-06T10:04:04;5.60;;;0.98;;
42200;SDS011;27869;51.442;7.540;2022-07-06T10:06:32;6.05;;;1.02;;
42200;SDS011;27869;51.442;7.540;2022-07-06T10:08:59;7.25;;;1.10;;
42200;SDS011;27869;51.442;7.540;2022-07-06T10:11:27;6.72;;;0.93;;
42200;SDS011;27869;51.442;7.540;2022-07-06T10:13:57;3.45;;;0.90;;
42200;SDS011;27869;51.442;7.540;2022-07-06T10:16:25;5.45;;;1.13;;
42200;SDS011;27869;51.442;7.540;2022-07-06T10:18:52;9.75;;;1.40;;
42200;SDS011;27869;51.442;7.540;2022-07-06T10:21:21;4.57;;;1.00;;
42200;SDS011;27869;51.442;7.540;2022-07-06T10:23:48;7.63;;;0.90;;
42200;SDS011;27869;51.442;7.540;2022-07-06T10:26:16;3.97;;;1.00;;
42200;SDS011;27869;51.442;7.540;2022-07-06T10:28:44;6.15;;;1.00;;
42200;SDS011;27869;51.442;7.540;2022-07-06T10:31:14;6.00;;;1.20;;
42200;SDS011;27869;51.442;7.540;2022-07-06T10:33:43;4.93;;;1.00;;
42200;SDS011;27869;51.442;7.540;2022-07-06T10:36:12;4.40;;;0.93;;
42200;SDS011;27869;51.442;7.540;2022-07-06T10:38:41;9.13;;;1.40;;
42200;SDS011;27869;51.442;7.540;2022-07-06T10:41:15;3.25;;;0.90;;
42200;SDS011;27869;51.442;7.540;2022-07-06T10:43:42;3.72;;;0.88;;
42200;SDS011;27869;51.442;7.540;2022-07-06T10:46:11;5.15;;;1.13;;
42200;SDS011;27869;51.442;7.540;2022-07-06T10:48:42;7.20;;;1.25;;
42200;SDS011;27869;51.442;7.540;2022-07-06T10:51:10;6.72;;;1.10;;
42200;SDS011;27869;51.442;7.540;2022-07-06T10:53:38;4.82;;;1.13;;
42200;SDS011;27869;51.442;7.540;2022-07-06T10:56:07;4.57;;;0.93;;
42200;SDS011;27869;51.442;7.540;2022-07-06T11:03:37;4.07;;;0.90;;
42200;SDS011;27869;51.442;7.540;2022-07-06T11:06:07;3.92;;;0.85;;
42200;SDS011;27869;51.442;7.540;2022-07-06T11:08:47;8.18;;;1.23;;
42200;SDS011;27869;51.442;7.540;2022-07-06T11:11:19;9.98;;;1.30;;
42200;SDS011;27869;51.442;7.540;2022-07-06T11:13:49;6.28;;;1.00;;
42200;SDS011;27869;51.442;7.540;2022-07-06T11:16:26;6.00;;;0.95;;
42200;SDS011;27869;51.442;7.540;2022-07-06T11:19:01;7.53;;;1.10;;
42200;SDS011;27869;51.442;7.540;2022-07-06T11:21:45;6.97;;;1.00;;
42200;SDS011;27869;51.442;7.540;2022-07-06T11:24:15;5.65;;;1.00;;
42200;SDS011;27869;51.442;7.540;2022-07-06T11:26:44;6.95;;;1.05;;
42200;SDS011;27869;51.442;7.540;2022-07-06T11:31:43;4.93;;;0.98;;
42200;SDS011;27869;51.442;7.540;2022-07-06T11:34:13;6.10;;;1.20;;
42200;SDS011;27869;51.442;7.540;2022-07-06T11:36:44;6.40;;;1.05;;
42200;SDS011;27869;51.442;7.540;2022-07-06T11:39:12;7.50;;;1.23;;
42200;SDS011;27869;51.442;7.540;2022-07-06T11:41:40;3.92;;;0.80;;
42200;SDS011;27869;51.442;7.540;2022-07-06T11:44:07;7.97;;;1.23;;
42200;SDS011;27869;51.442;7.540;2022-07-06T11:46:34;7.63;;;1.10;;
42200;SDS011;27869;51.442;7.540;2022-07-06T11:49:02;6.32;;;1.23;;
42200;SDS011;27869;51.442;7.540;2022-07-06T11:51:32;5.47;;;1.00;;
42200;SDS011;27869;51.442;7.540;2022-07-06T11:54:01;6.15;;;1.05;;
42200;SDS011;27869;51.442;7.540;2022-07-06T11:56:33;4.53;;;0.90;;
42200;SDS011;27869;51.442;7.540;2022-07-06T11:59:01;4.70;;;1.10;;
42200;SDS011;27869;51.442;7.540;2022-07-06T12:01:29;7.47;;;0.93;;
42200;SDS011;27869;51.442;7.540;2022-07-06T12:03:57;3.95;;;0.90;;
42200;SDS011;27869;51.442;7.540;2022-07-06T12:06:25;6.25;;;0.93;;
42200;SDS011;27869;51.442;7.540;2022-07-06T12:08:55;9.65;;;1.20;;
42200;SDS011;27869;51.442;7.540;2022-07-06T12:11:23;9.25;;;1.10;;
42200;SDS011;27869;51.442;7.540;2022-07-06T12:13:52;8.48;;;1.23;;
42200;SDS011;27869;51.442;7.540;2022-07-06T12:16:20;6.75;;;1.25;;
42200;SDS011;27869;51.442;7.540;2022-07-06T12:18:49;5.93;;;1.05;;
42200;SDS011;27869;51.442;7.540;2022-07-06T12:21:17;5.68;;;1.20;;
42200;SDS011;27869;51.442;7.540;2022-07-06T12:23:47;10.55;;;1.23;;
42200;SDS011;27869;51.442;7.540;2022-07-06T12:26:18;6.15;;;1.05;;
42200;SDS011;27869;51.442;7.540;2022-07-06T12:28:58;6.45;;;1.17;;
42200;SDS011;27869;51.442;7.540;2022-07-06T12:31:33;8.55;;;1.13;;
42200;SDS011;27869;51.442;7.540;2022-07-06T12:34:00;4.80;;;0.82;;
42200;SDS011;27869;51.442;7.540;2022-07-06T12:36:28;5.47;;;1.02;;
42200;SDS011;27869;51.442;7.540;2022-07-06T12:38:55;5.88;;;1.10;;
42200;SDS011;27869;51.442;7.540;2022-07-06T12:41:28;6.07;;;1.05;;
42200;SDS011;27869;51.442;7.540;2022-07-06T12:46:28;6.10;;;1.10;;
42200;SDS011;27869;51.442;7.540;2022-07-06T12:48:56;6.80;;;1.40;;
42200;SDS011;27869;51.442;7.540;2022-07-06T12:51:24;6.10;;;0.98;;
42200;SDS011;27869;51.442;7.540;2022-07-06T12:53:52;6.20;;;0.90;;
42200;SDS011;27869;51.442;7.540;2022-07-06T12:56:19;10.43;;;1.20;;
42200;SDS011;27869;51.442;7.540;2022-07-06T12:58:56;7.97;;;1.50;;
42200;SDS011;27869;51.442;7.540;2022-07-06T13:01:23;5.18;;;0.88;;
42200;SDS011;27869;51.442;7.540;2022-07-06T13:03:55;6.13;;;0.90;;
42200;SDS011;27869;51.442;7.540;2022-07-06T13:06:26;5.18;;;1.20;;
42200;SDS011;27869;51.442;7.540;2022-07-06T13:08:57;7.88;;;1.30;;
42200;SDS011;27869;51.442;7.540;2022-07-06T13:11:24;4.22;;;1.05;;
42200;SDS011;27869;51.442;7.540;2022-07-06T13:13:51;7.28;;;1.40;;
42200;SDS011;27869;51.442;7.540;2022-07-06T13:16:20;5.15;;;1.20;;
42200;SDS011;27869;51.442;7.540;2022-07-06T13:18:49;6.65;;;1.25;;
42200;SDS011;27869;51.442;7.540;2022-07-06T13:21:16;6.72;;;1.20;;
42200;SDS011;27869;51.442;7.540;2022-07-06T13:23:43;6.40;;;1.10;;
42200;SDS011;27869;51.442;7.540;2022-07-06T13:26:10;5.40;;;1.15;;
42200;SDS011;27869;51.442;7.540;2022-07-06T13:28:37;6.45;;;1.33;;
42200;SDS011;27869;51.442;7.540;2022-07-06T13:31:04;9.45;;;1.30;;
42200;SDS011;27869;51.442;7.540;2022-07-06T13:33:32;6.43;;;1.15;;
42200;SDS011;27869;51.442;7.540;2022-07-06T13:36:00;6.38;;;1.10;;
42200;SDS011;27869;51.442;7.540;2022-07-06T13:38:28;7.28;;;1.27;;
42200;SDS011;27869;51.442;7.540;2022-07-06T13:40:55;7.65;;;1.17;;
42200;SDS011;27869;51.442;7.540;2022-07-06T13:43:22;8.23;;;1.08;;
42200;SDS011;27869;51.442;7.540;2022-07-06T13:45:49;6.95;;;1.13;;
42200;SDS011;27869;51.442;7.540;2022-07-06T13:48:16;6.22;;;1.20;;
42200;SDS011;27869;51.442;7.540;2022-07-06T13:50:45;8.00;;;1.42;;
42200;SDS011;27869;51.442;7.540;2022-07-06T13:53:12;8.98;;;1.20;;
42200;SDS011;27869;51.442;7.540;2022-07-06T13:55:39;7.82;;;1.15;;
42200;SDS011;27869;51.442;7.540;2022-07-06T13:58:06;6.68;;;1.30;;
42200;SDS011;27869;51.442;7.540;2022-07-06T14:00:34;5.90;;;1.10;;
42200;SDS011;27869;51.442;7.540;2022-07-06T14:03:01;7.25;;;1.17;;
42200;SDS011;27869;51.442;7.540;2022-07-06T14:05:29;4.95;;;1.27;;
42200;SDS011;27869;51.442;7.540;2022-07-06T14:07:57;9.18;;;1.30;;
42200;SDS011;27869;51.442;7.540;2022-07-06T14:10:24;6.03;;;1.25;;
42200;SDS011;27869;51.442;7.540;2022-07-06T14:12:51;6.47;;;1.10;;
42200;SDS011;27869;51.442;7.540;2022-07-06T14:15:18;6.00;;;1.10;;
42200;SDS011;27869;51.442;7.540;2022-07-06T14:17:46;8.13;;;1.20;;
42200;SDS011;27869;51.442;7.540;2022-07-06T14:20:13;9.85;;;1.35;;
42200;SDS011;27869;51.442;7.540;2022-07-06T14:22:41;6.60;;;1.10;;
42200;SDS011;27869;51.442;7.540;2022-07-06T14:25:09;6.55;;;1.00;;
42200;SDS011;27869;51.442;7.540;2022-07-06T14:27:36;5.68;;;1.10;;
42200;SDS011;27869;51.442;7.540;2022-07-06T14:30:05;7.40;;;1.40;;
42200;SDS011;27869;51.442;7.540;2022-07-06T14:32:33;6.93;;;1.52;;
42200;SDS011;27869;51.442;7.540;2022-07-06T14:35:00;7.03;;;1.23;;
42200;SDS011;27869;51.442;7.540;2022-07-06T14:37:27;9.18;;;1.50;;
42200;SDS011;27869;51.442;7.540;2022-07-06T14:39:54;4.00;;;0.98;;
42200;SDS011;27869;51.442;7.540;2022-07-06T14:42:23;7.05;;;1.40;;
42200;SDS011;27869;51.442;7.540;2022-07-06T14:44:50;8.20;;;1.30;;
42200;SDS011;27869;51.442;7.540;2022-07-06T14:47:17;8.80;;;1.77;;
42200;SDS011;27869;51.442;7.540;2022-07-06T14:49:44;8.70;;;1.33;;
42200;SDS011;27869;51.442;7.540;2022-07-06T14:52:11;6.32;;;1.42;;
42200;SDS011;27869;51.442;7.540;2022-07-06T14:54:38;6.70;;;1.33;;
42200;SDS011;27869;51.442;7.540;2022-07-06T14:57:05;7.28;;;1.52;;
42200;SDS011;27869;51.442;7.540;2022-07-06T14:59:34;7.20;;;1.50;;
42200;SDS011;27869;51.442;7.540;2022-07-06T15:02:02;7.10;;;1.40;;